FCYJMS OPMF-VIBR
Flight info
| Callsign | FCYJMS |
|---|---|
| Flight time | 1h 25m |
| Altitude | 15500 |
| Route | 3418N07333E DCT ORIVU DCT PANLA DCT DALBO DCT ATNUS DCT BOMAB DCT KNG DCT 3158N07707E 3156N07707E DCT 3154N07708E |
| Aircraft | C414/L-SBDFGRY/S |
Departure
| Time | 2026-05-06 18:52 |
|---|---|
| Airport | Muzaffarabad Airport (OPMF) |
Arrival
| Time | 2026-05-06 20:17 |
|---|---|
| Airport | Kullu Manali Airport (VIBR) |
| Time | Latitude | Longitude | Altitude | Speed | Heading |
|---|---|---|---|---|---|
| 2026-05-06 17:58 | 34.34165 | 73.50559 | 2760 ft | 0 kts | 219° |
| 2026-05-06 18:50 | 34.34163 | 73.50556 | 2762 ft | 4 kts | 231° |
| 2026-05-06 18:50 | 34.34187 | 73.50525 | 2756 ft | 2 kts | 261° |
| 2026-05-06 18:51 | 34.34167 | 73.50511 | 2757 ft | 0 kts | 135° |
| 2026-05-06 18:51 | 34.34160 | 73.50519 | 2757 ft | 13 kts | 135° |
| 2026-05-06 18:51 | 34.33970 | 73.50772 | 2765 ft | 66 kts | 132° |
| 2026-05-06 18:51 | 34.33580 | 73.51313 | 2820 ft | 101 kts | 129° |
| 2026-05-06 18:52 | 34.33098 | 73.51930 | 3072 ft | 101 kts | 134° |
| 2026-05-06 18:52 | 34.32516 | 73.52568 | 3162 ft | 122 kts | 141° |
| 2026-05-06 18:52 | 34.31839 | 73.53246 | 3316 ft | 132 kts | 137° |
| 2026-05-06 18:52 | 34.31141 | 73.54016 | 3524 ft | 136 kts | 136° |
| 2026-05-06 18:53 | 34.30402 | 73.54749 | 3705 ft | 140 kts | 152° |
| 2026-05-06 18:53 | 34.29506 | 73.55217 | 3980 ft | 138 kts | 154° |
| 2026-05-06 18:53 | 34.28639 | 73.55698 | 4272 ft | 136 kts | 153° |
| 2026-05-06 18:53 | 34.27797 | 73.56170 | 4586 ft | 134 kts | 153° |
| 2026-05-06 18:54 | 34.26962 | 73.56637 | 4916 ft | 131 kts | 153° |
| 2026-05-06 18:54 | 34.26138 | 73.57097 | 5239 ft | 130 kts | 154° |
| 2026-05-06 18:54 | 34.25317 | 73.57549 | 5551 ft | 129 kts | 155° |
| 2026-05-06 18:54 | 34.24502 | 73.58002 | 5859 ft | 125 kts | 155° |
| 2026-05-06 18:55 | 34.23722 | 73.58437 | 6159 ft | 122 kts | 155° |
| 2026-05-06 18:55 | 34.22968 | 73.58857 | 6449 ft | 120 kts | 155° |
| 2026-05-06 18:55 | 34.22210 | 73.59277 | 6735 ft | 119 kts | 156° |
| 2026-05-06 18:55 | 34.21457 | 73.59698 | 7033 ft | 121 kts | 156° |
| 2026-05-06 18:56 | 34.20684 | 73.60120 | 7333 ft | 122 kts | 156° |
| 2026-05-06 18:56 | 34.19923 | 73.60545 | 7642 ft | 122 kts | 156° |
| 2026-05-06 18:56 | 34.19135 | 73.60981 | 7959 ft | 127 kts | 156° |
| 2026-05-06 18:56 | 34.18340 | 73.61419 | 8263 ft | 123 kts | 156° |
| 2026-05-06 18:57 | 34.17558 | 73.61849 | 8590 ft | 126 kts | 157° |
| 2026-05-06 18:57 | 34.16753 | 73.62302 | 8907 ft | 127 kts | 157° |
| 2026-05-06 18:57 | 34.15940 | 73.62751 | 9230 ft | 129 kts | 157° |
| 2026-05-06 18:57 | 34.15126 | 73.63202 | 9555 ft | 128 kts | 158° |
| 2026-05-06 18:58 | 34.14319 | 73.63649 | 9861 ft | 131 kts | 158° |
| 2026-05-06 18:58 | 34.13467 | 73.64120 | 10067 ft | 139 kts | 156° |
| 2026-05-06 18:58 | 34.12553 | 73.64624 | 10254 ft | 149 kts | 157° |
| 2026-05-06 18:58 | 34.11582 | 73.65156 | 10437 ft | 157 kts | 156° |
| 2026-05-06 18:59 | 34.10578 | 73.65711 | 10654 ft | 160 kts | 155° |
| 2026-05-06 18:59 | 34.09571 | 73.66274 | 10838 ft | 160 kts | 155° |
| 2026-05-06 18:59 | 34.08543 | 73.66838 | 11012 ft | 164 kts | 155° |
| 2026-05-06 18:59 | 34.07495 | 73.67416 | 11189 ft | 167 kts | 155° |
| 2026-05-06 19:00 | 34.06436 | 73.68000 | 11360 ft | 167 kts | 155° |
| 2026-05-06 19:00 | 34.05371 | 73.68585 | 11524 ft | 169 kts | 154° |
| 2026-05-06 19:00 | 34.04324 | 73.69166 | 11678 ft | 164 kts | 153° |
| 2026-05-06 19:00 | 34.03640 | 73.69548 | 11792 ft | 164 kts | 154° |
| 2026-05-06 19:01 | 34.02241 | 73.70318 | 12020 ft | 167 kts | 154° |
| 2026-05-06 19:01 | 34.01185 | 73.70900 | 12190 ft | 167 kts | 154° |
| 2026-05-06 19:01 | 34.00128 | 73.71484 | 12362 ft | 167 kts | 153° |
| 2026-05-06 19:01 | 33.99064 | 73.72073 | 12539 ft | 169 kts | 153° |
| 2026-05-06 19:02 | 33.98003 | 73.72656 | 12712 ft | 170 kts | 153° |
| 2026-05-06 19:02 | 33.96907 | 73.73259 | 12893 ft | 171 kts | 153° |
| 2026-05-06 19:02 | 33.95835 | 73.73850 | 13069 ft | 172 kts | 153° |
| 2026-05-06 19:02 | 33.94734 | 73.74456 | 13230 ft | 172 kts | 153° |
| 2026-05-06 19:03 | 33.93644 | 73.75058 | 13416 ft | 173 kts | 152° |
| 2026-05-06 19:03 | 33.93408 | 73.75188 | 13443 ft | 174 kts | 152° |
| 2026-05-06 19:04 | 33.92401 | 73.75741 | 13613 ft | 173 kts | 152° |
| 2026-05-06 19:04 | 33.91315 | 73.76338 | 13785 ft | 169 kts | 152° |
| 2026-05-06 19:04 | 33.90249 | 73.76924 | 13945 ft | 168 kts | 152° |
| 2026-05-06 19:04 | 33.89183 | 73.77511 | 14099 ft | 168 kts | 152° |
| 2026-05-06 19:05 | 33.88119 | 73.78096 | 14254 ft | 168 kts | 152° |
| 2026-05-06 19:05 | 33.87058 | 73.78679 | 14415 ft | 168 kts | 151° |
| 2026-05-06 19:05 | 33.85996 | 73.79265 | 14607 ft | 169 kts | 151° |
| 2026-05-06 19:05 | 33.84970 | 73.79933 | 14754 ft | 166 kts | 134° |
| 2026-05-06 19:06 | 33.84291 | 73.81007 | 14922 ft | 160 kts | 111° |
| 2026-05-06 19:06 | 33.83779 | 73.82195 | 15092 ft | 160 kts | 112° |
| 2026-05-06 19:06 | 33.83256 | 73.83379 | 15261 ft | 161 kts | 112° |
| 2026-05-06 19:06 | 33.82734 | 73.84573 | 15430 ft | 161 kts | 111° |
| 2026-05-06 19:07 | 33.82208 | 73.85791 | 15498 ft | 169 kts | 112° |
| 2026-05-06 19:07 | 33.81842 | 73.86634 | 15500 ft | 173 kts | 112° |
| 2026-05-06 19:07 | 33.81081 | 73.88372 | 15509 ft | 178 kts | 112° |
| 2026-05-06 19:07 | 33.80499 | 73.89705 | 15509 ft | 182 kts | 112° |
| 2026-05-06 19:08 | 33.79906 | 73.91061 | 15512 ft | 184 kts | 112° |
| 2026-05-06 19:08 | 33.79308 | 73.92429 | 15513 ft | 186 kts | 112° |
| 2026-05-06 19:08 | 33.78705 | 73.93811 | 15540 ft | 187 kts | 112° |
| 2026-05-06 19:08 | 33.78099 | 73.95199 | 15539 ft | 189 kts | 112° |
| 2026-05-06 19:09 | 33.77487 | 73.96595 | 15521 ft | 189 kts | 112° |
| 2026-05-06 19:09 | 33.76876 | 73.97989 | 15518 ft | 188 kts | 112° |
| 2026-05-06 19:09 | 33.76270 | 73.99379 | 15520 ft | 188 kts | 113° |
| 2026-05-06 19:09 | 33.75659 | 74.00774 | 15525 ft | 190 kts | 113° |
| 2026-05-06 19:10 | 33.75045 | 74.02175 | 15517 ft | 189 kts | 113° |
| 2026-05-06 19:10 | 33.74435 | 74.03571 | 15519 ft | 188 kts | 113° |
| 2026-05-06 19:10 | 33.73825 | 74.04962 | 15519 ft | 188 kts | 113° |
| 2026-05-06 19:10 | 33.73213 | 74.06355 | 15520 ft | 189 kts | 113° |
| 2026-05-06 19:11 | 33.72604 | 74.07745 | 15540 ft | 187 kts | 113° |
| 2026-05-06 19:11 | 33.71998 | 74.09126 | 15545 ft | 187 kts | 113° |
| 2026-05-06 19:11 | 33.71391 | 74.10511 | 15544 ft | 188 kts | 113° |
| 2026-05-06 19:11 | 33.70782 | 74.11897 | 15542 ft | 188 kts | 112° |
| 2026-05-06 19:12 | 33.70173 | 74.13282 | 15538 ft | 187 kts | 114° |
| 2026-05-06 19:12 | 33.69566 | 74.14663 | 15521 ft | 187 kts | 112° |
| 2026-05-06 19:12 | 33.68960 | 74.16045 | 15520 ft | 187 kts | 114° |
| 2026-05-06 19:12 | 33.68351 | 74.17431 | 15521 ft | 188 kts | 113° |
| 2026-05-06 19:13 | 33.67748 | 74.18804 | 15522 ft | 188 kts | 113° |
| 2026-05-06 19:13 | 33.67134 | 74.20195 | 15523 ft | 189 kts | 113° |
| 2026-05-06 19:13 | 33.66518 | 74.21590 | 15527 ft | 190 kts | 113° |
| 2026-05-06 19:13 | 33.65900 | 74.22997 | 15563 ft | 191 kts | 113° |
| 2026-05-06 19:14 | 33.65281 | 74.24403 | 15564 ft | 190 kts | 107° |
| 2026-05-06 19:14 | 33.64683 | 74.25817 | 15557 ft | 190 kts | 108° |
| 2026-05-06 19:14 | 33.64068 | 74.27224 | 15546 ft | 191 kts | 109° |
| 2026-05-06 19:14 | 33.63444 | 74.28620 | 15546 ft | 189 kts | 109° |
| 2026-05-06 19:15 | 33.62828 | 74.30007 | 15545 ft | 187 kts | 109° |
| 2026-05-06 19:15 | 33.62218 | 74.31385 | 15546 ft | 186 kts | 109° |
| 2026-05-06 19:15 | 33.61611 | 74.32761 | 15520 ft | 186 kts | 108° |
| 2026-05-06 19:15 | 33.61008 | 74.34128 | 15525 ft | 186 kts | 109° |
| 2026-05-06 19:16 | 33.60399 | 74.35503 | 15523 ft | 187 kts | 109° |
| 2026-05-06 19:16 | 33.60006 | 74.36393 | 15549 ft | 188 kts | 108° |
| 2026-05-06 19:16 | 33.59383 | 74.37802 | 15546 ft | 187 kts | 108° |
| 2026-05-06 19:16 | 33.58771 | 74.39182 | 15548 ft | 188 kts | 109° |
| 2026-05-06 19:17 | 33.58159 | 74.40568 | 15548 ft | 188 kts | 109° |
| 2026-05-06 19:17 | 33.57546 | 74.41954 | 15546 ft | 188 kts | 109° |
| 2026-05-06 19:17 | 33.56934 | 74.43338 | 15546 ft | 189 kts | 108° |
| 2026-05-06 19:17 | 33.56315 | 74.44731 | 15551 ft | 189 kts | 109° |
| 2026-05-06 19:18 | 33.55697 | 74.46125 | 15550 ft | 191 kts | 109° |
| 2026-05-06 19:18 | 33.55072 | 74.47537 | 15544 ft | 190 kts | 109° |
| 2026-05-06 19:18 | 33.54457 | 74.48920 | 15550 ft | 186 kts | 108° |
| 2026-05-06 19:18 | 33.53851 | 74.50279 | 15548 ft | 184 kts | 108° |
| 2026-05-06 19:19 | 33.53248 | 74.51640 | 15547 ft | 185 kts | 108° |
| 2026-05-06 19:19 | 33.52641 | 74.53008 | 15544 ft | 186 kts | 108° |
| 2026-05-06 19:19 | 33.52038 | 74.54360 | 15545 ft | 183 kts | 109° |
| 2026-05-06 19:19 | 33.51442 | 74.55708 | 15548 ft | 184 kts | 108° |
| 2026-05-06 19:20 | 33.50836 | 74.57071 | 15543 ft | 185 kts | 109° |
| 2026-05-06 19:20 | 33.50231 | 74.58423 | 15548 ft | 184 kts | 109° |
| 2026-05-06 19:20 | 33.49634 | 74.59765 | 15543 ft | 181 kts | 110° |
| 2026-05-06 19:20 | 33.49038 | 74.61105 | 15545 ft | 184 kts | 110° |
| 2026-05-06 19:21 | 33.48433 | 74.62465 | 15541 ft | 186 kts | 110° |
| 2026-05-06 19:21 | 33.47826 | 74.63831 | 15541 ft | 184 kts | 110° |
| 2026-05-06 19:21 | 33.47222 | 74.65184 | 15538 ft | 184 kts | 110° |
| 2026-05-06 19:21 | 33.46627 | 74.66516 | 15534 ft | 184 kts | 110° |
| 2026-05-06 19:22 | 33.46025 | 74.67866 | 15516 ft | 184 kts | 110° |
| 2026-05-06 19:22 | 33.45424 | 74.69213 | 15518 ft | 184 kts | 110° |
| 2026-05-06 19:22 | 33.44812 | 74.70586 | 15447 ft | 190 kts | 110° |
| 2026-05-06 19:22 | 33.44182 | 74.72005 | 15323 ft | 195 kts | 110° |
| 2026-05-06 19:23 | 33.43541 | 74.73432 | 15204 ft | 195 kts | 110° |
| 2026-05-06 19:23 | 33.42900 | 74.74870 | 15082 ft | 197 kts | 110° |
| 2026-05-06 19:23 | 33.42252 | 74.76320 | 14960 ft | 198 kts | 110° |
| 2026-05-06 19:23 | 33.41602 | 74.77770 | 14836 ft | 198 kts | 110° |
| 2026-05-06 19:24 | 33.40950 | 74.79226 | 14721 ft | 199 kts | 110° |
| 2026-05-06 19:24 | 33.40296 | 74.80690 | 14599 ft | 200 kts | 110° |
| 2026-05-06 19:24 | 33.39637 | 74.82163 | 14478 ft | 201 kts | 111° |
| 2026-05-06 19:24 | 33.38977 | 74.83636 | 14359 ft | 202 kts | 111° |
| 2026-05-06 19:25 | 33.38314 | 74.85111 | 14235 ft | 201 kts | 111° |
| 2026-05-06 19:25 | 33.37654 | 74.86584 | 14093 ft | 201 kts | 110° |
| 2026-05-06 19:25 | 33.36994 | 74.88059 | 13970 ft | 201 kts | 111° |
| 2026-05-06 19:25 | 33.36330 | 74.89537 | 13847 ft | 202 kts | 110° |
| 2026-05-06 19:26 | 33.35582 | 74.90965 | 13653 ft | 207 kts | 125° |
| 2026-05-06 19:26 | 33.34429 | 74.92023 | 13444 ft | 210 kts | 143° |
| 2026-05-06 19:26 | 33.33200 | 74.92932 | 13311 ft | 206 kts | 142° |
| 2026-05-06 19:26 | 33.31994 | 74.93841 | 13169 ft | 204 kts | 142° |
| 2026-05-06 19:27 | 33.30807 | 74.94736 | 13040 ft | 201 kts | 142° |
| 2026-05-06 19:27 | 33.29621 | 74.95634 | 12907 ft | 202 kts | 141° |
| 2026-05-06 19:27 | 33.28425 | 74.96536 | 12744 ft | 205 kts | 142° |
| 2026-05-06 19:27 | 33.27212 | 74.97451 | 12612 ft | 207 kts | 142° |
| 2026-05-06 19:28 | 33.25991 | 74.98369 | 12480 ft | 208 kts | 142° |
| 2026-05-06 19:28 | 33.24797 | 74.99264 | 12462 ft | 202 kts | 142° |
| 2026-05-06 19:28 | 33.23616 | 75.00154 | 12459 ft | 199 kts | 142° |
| 2026-05-06 19:28 | 33.22447 | 75.01033 | 12459 ft | 198 kts | 142° |
| 2026-05-06 19:29 | 33.21289 | 75.01905 | 12462 ft | 196 kts | 142° |
| 2026-05-06 19:29 | 33.20134 | 75.02774 | 12461 ft | 197 kts | 142° |
| 2026-05-06 19:29 | 33.18975 | 75.03646 | 12419 ft | 197 kts | 142° |
| 2026-05-06 19:29 | 33.17820 | 75.04511 | 12419 ft | 194 kts | 143° |
| 2026-05-06 19:30 | 33.16671 | 75.05373 | 12427 ft | 197 kts | 142° |
| 2026-05-06 19:30 | 33.15504 | 75.06261 | 12432 ft | 201 kts | 140° |
| 2026-05-06 19:30 | 33.14418 | 75.07287 | 12464 ft | 199 kts | 133° |
| 2026-05-06 19:30 | 33.13357 | 75.08348 | 12447 ft | 198 kts | 133° |
| 2026-05-06 19:31 | 33.12298 | 75.09388 | 12447 ft | 196 kts | 134° |
| 2026-05-06 19:31 | 33.11245 | 75.10423 | 12445 ft | 196 kts | 134° |
| 2026-05-06 19:31 | 33.09156 | 75.12483 | 12410 ft | 195 kts | 134° |
| 2026-05-06 19:32 | 33.08112 | 75.13511 | 12408 ft | 194 kts | 134° |
| 2026-05-06 19:32 | 33.07072 | 75.14535 | 12410 ft | 194 kts | 134° |
| 2026-05-06 19:32 | 33.06026 | 75.15565 | 12408 ft | 194 kts | 134° |
| 2026-05-06 19:32 | 33.04984 | 75.16590 | 12409 ft | 194 kts | 134° |
| 2026-05-06 19:33 | 33.03945 | 75.17612 | 12413 ft | 193 kts | 134° |
| 2026-05-06 19:33 | 33.02911 | 75.18630 | 12410 ft | 192 kts | 134° |
| 2026-05-06 19:33 | 33.01881 | 75.19642 | 12412 ft | 192 kts | 134° |
| 2026-05-06 19:33 | 33.00852 | 75.20652 | 12378 ft | 192 kts | 133° |
| 2026-05-06 19:34 | 32.99824 | 75.21664 | 12417 ft | 191 kts | 134° |
| 2026-05-06 19:34 | 32.98790 | 75.22679 | 12412 ft | 193 kts | 134° |
| 2026-05-06 19:34 | 32.97749 | 75.23703 | 12412 ft | 194 kts | 134° |
| 2026-05-06 19:34 | 32.96702 | 75.24729 | 12411 ft | 195 kts | 134° |
| 2026-05-06 19:35 | 32.95664 | 75.25748 | 12410 ft | 190 kts | 135° |
| 2026-05-06 19:35 | 32.94657 | 75.26733 | 12413 ft | 187 kts | 134° |
| 2026-05-06 19:35 | 32.93653 | 75.27719 | 12410 ft | 187 kts | 134° |
| 2026-05-06 19:35 | 32.92656 | 75.28694 | 12418 ft | 186 kts | 134° |
| 2026-05-06 19:36 | 32.91651 | 75.29684 | 12408 ft | 189 kts | 135° |
| 2026-05-06 19:36 | 32.90633 | 75.30682 | 12409 ft | 190 kts | 135° |
| 2026-05-06 19:36 | 32.89608 | 75.31686 | 12408 ft | 191 kts | 134° |
| 2026-05-06 19:36 | 32.88578 | 75.32694 | 12410 ft | 192 kts | 135° |
| 2026-05-06 19:37 | 32.87544 | 75.33707 | 12409 ft | 193 kts | 134° |
| 2026-05-06 19:37 | 32.86514 | 75.34715 | 12416 ft | 190 kts | 134° |
| 2026-05-06 19:37 | 32.85498 | 75.35705 | 12451 ft | 188 kts | 134° |
| 2026-05-06 19:37 | 32.84490 | 75.36693 | 12447 ft | 189 kts | 134° |
| 2026-05-06 19:38 | 32.83471 | 75.37691 | 12449 ft | 190 kts | 134° |
| 2026-05-06 19:38 | 32.82448 | 75.38692 | 12417 ft | 190 kts | 134° |
| 2026-05-06 19:38 | 32.81429 | 75.39686 | 12421 ft | 191 kts | 134° |
| 2026-05-06 19:38 | 32.80410 | 75.40680 | 12418 ft | 192 kts | 134° |
| 2026-05-06 19:39 | 32.79366 | 75.41701 | 12421 ft | 193 kts | 134° |
| 2026-05-06 19:39 | 32.78341 | 75.42704 | 12433 ft | 194 kts | 134° |
| 2026-05-06 19:39 | 32.77299 | 75.43721 | 12424 ft | 193 kts | 133° |
| 2026-05-06 19:39 | 32.76272 | 75.44722 | 12419 ft | 190 kts | 133° |
| 2026-05-06 19:40 | 32.75248 | 75.45717 | 12418 ft | 190 kts | 133° |
| 2026-05-06 19:40 | 32.74233 | 75.46709 | 12416 ft | 187 kts | 134° |
| 2026-05-06 19:40 | 32.73292 | 75.47748 | 12453 ft | 183 kts | 119° |
| 2026-05-06 19:40 | 32.72713 | 75.49086 | 12405 ft | 184 kts | 105° |
| 2026-05-06 19:41 | 32.72179 | 75.50466 | 12438 ft | 185 kts | 107° |
| 2026-05-06 19:41 | 32.71635 | 75.51860 | 12438 ft | 187 kts | 107° |
| 2026-05-06 19:41 | 32.71089 | 75.53268 | 12436 ft | 188 kts | 107° |
| 2026-05-06 19:41 | 32.70541 | 75.54680 | 12429 ft | 188 kts | 106° |
| 2026-05-06 19:42 | 32.69996 | 75.56086 | 12426 ft | 187 kts | 107° |
| 2026-05-06 19:42 | 32.69452 | 75.57483 | 12429 ft | 186 kts | 107° |
| 2026-05-06 19:42 | 32.68910 | 75.58881 | 12428 ft | 187 kts | 107° |
| 2026-05-06 19:42 | 32.68366 | 75.60282 | 12427 ft | 186 kts | 106° |
| 2026-05-06 19:43 | 32.67825 | 75.61668 | 12427 ft | 184 kts | 107° |
| 2026-05-06 19:43 | 32.67289 | 75.63046 | 12425 ft | 184 kts | 106° |
| 2026-05-06 19:43 | 32.66750 | 75.64436 | 12459 ft | 186 kts | 107° |
| 2026-05-06 19:43 | 32.66205 | 75.65838 | 12462 ft | 187 kts | 107° |
| 2026-05-06 19:44 | 32.65659 | 75.67236 | 12456 ft | 186 kts | 106° |
| 2026-05-06 19:44 | 32.65117 | 75.68625 | 12424 ft | 186 kts | 107° |
| 2026-05-06 19:44 | 32.64574 | 75.70022 | 12428 ft | 187 kts | 107° |
| 2026-05-06 19:44 | 32.64024 | 75.71432 | 12425 ft | 189 kts | 107° |
| 2026-05-06 19:45 | 32.63472 | 75.72847 | 12426 ft | 189 kts | 106° |
| 2026-05-06 19:45 | 32.62921 | 75.74258 | 12429 ft | 189 kts | 106° |
| 2026-05-06 19:45 | 32.62368 | 75.75677 | 12424 ft | 191 kts | 107° |
| 2026-05-06 19:45 | 32.61814 | 75.77096 | 12427 ft | 189 kts | 107° |
| 2026-05-06 19:46 | 32.61263 | 75.78502 | 12462 ft | 188 kts | 106° |
| 2026-05-06 19:46 | 32.60715 | 75.79902 | 12459 ft | 186 kts | 108° |
| 2026-05-06 19:46 | 32.60173 | 75.81293 | 12460 ft | 186 kts | 108° |
| 2026-05-06 19:46 | 32.59629 | 75.82679 | 12457 ft | 184 kts | 108° |
| 2026-05-06 19:47 | 32.59090 | 75.84055 | 12458 ft | 184 kts | 108° |
| 2026-05-06 19:47 | 32.58552 | 75.85436 | 12452 ft | 185 kts | 108° |
| 2026-05-06 19:47 | 32.58012 | 75.86812 | 12454 ft | 184 kts | 108° |
| 2026-05-06 19:47 | 32.57481 | 75.88165 | 12456 ft | 184 kts | 108° |
| 2026-05-06 19:48 | 32.56941 | 75.89542 | 12426 ft | 184 kts | 108° |
| 2026-05-06 19:48 | 32.56401 | 75.90918 | 12426 ft | 184 kts | 108° |
| 2026-05-06 19:48 | 32.55861 | 75.92295 | 12428 ft | 184 kts | 108° |
| 2026-05-06 19:48 | 32.55320 | 75.93679 | 12459 ft | 186 kts | 108° |
| 2026-05-06 19:49 | 32.54775 | 75.95066 | 12463 ft | 185 kts | 108° |
| 2026-05-06 19:49 | 32.54230 | 75.96443 | 12452 ft | 185 kts | 110° |
| 2026-05-06 19:49 | 32.53403 | 75.97626 | 12429 ft | 190 kts | 136° |
| 2026-05-06 19:49 | 32.52316 | 75.98485 | 12468 ft | 187 kts | 141° |
| 2026-05-06 19:50 | 32.51236 | 75.99340 | 12454 ft | 186 kts | 140° |
| 2026-05-06 19:50 | 32.50164 | 76.00186 | 12461 ft | 185 kts | 140° |
| 2026-05-06 19:50 | 32.49091 | 76.01038 | 12459 ft | 187 kts | 140° |
| 2026-05-06 19:50 | 32.48010 | 76.01890 | 12458 ft | 187 kts | 141° |
| 2026-05-06 19:51 | 32.46920 | 76.02751 | 12432 ft | 188 kts | 141° |
| 2026-05-06 19:51 | 32.45825 | 76.03614 | 12434 ft | 190 kts | 141° |
| 2026-05-06 19:51 | 32.44717 | 76.04490 | 12431 ft | 192 kts | 141° |
| 2026-05-06 19:51 | 32.43604 | 76.05367 | 12433 ft | 192 kts | 140° |
| 2026-05-06 19:52 | 32.42493 | 76.06245 | 12432 ft | 191 kts | 141° |
| 2026-05-06 19:52 | 32.41388 | 76.07114 | 12430 ft | 190 kts | 141° |
| 2026-05-06 19:52 | 32.40296 | 76.07979 | 12482 ft | 189 kts | 140° |
| 2026-05-06 19:52 | 32.39193 | 76.08843 | 12481 ft | 191 kts | 141° |
| 2026-05-06 19:53 | 32.38084 | 76.09712 | 12449 ft | 191 kts | 141° |
| 2026-05-06 19:53 | 32.36975 | 76.10586 | 12454 ft | 193 kts | 140° |
| 2026-05-06 19:53 | 32.35852 | 76.11480 | 12446 ft | 195 kts | 141° |
| 2026-05-06 19:53 | 32.34716 | 76.12365 | 12445 ft | 197 kts | 142° |
| 2026-05-06 19:54 | 32.33577 | 76.13262 | 12446 ft | 197 kts | 140° |
| 2026-05-06 19:54 | 32.32443 | 76.14157 | 12445 ft | 196 kts | 141° |
| 2026-05-06 19:54 | 32.31309 | 76.15048 | 12464 ft | 196 kts | 141° |
| 2026-05-06 19:54 | 32.30182 | 76.15933 | 12453 ft | 193 kts | 141° |
| 2026-05-06 19:55 | 32.29064 | 76.16810 | 12448 ft | 192 kts | 141° |
| 2026-05-06 19:55 | 32.27952 | 76.17687 | 12429 ft | 192 kts | 141° |
| 2026-05-06 19:55 | 32.26848 | 76.18552 | 12421 ft | 190 kts | 141° |
| 2026-05-06 19:55 | 32.25749 | 76.19416 | 12429 ft | 189 kts | 141° |
| 2026-05-06 19:56 | 32.24649 | 76.20276 | 12435 ft | 191 kts | 141° |
| 2026-05-06 19:56 | 32.23542 | 76.21146 | 12349 ft | 194 kts | 141° |
| 2026-05-06 19:56 | 32.22409 | 76.22035 | 12240 ft | 197 kts | 141° |
| 2026-05-06 19:56 | 32.21262 | 76.22936 | 12095 ft | 199 kts | 141° |
| 2026-05-06 19:57 | 32.20108 | 76.23841 | 11944 ft | 200 kts | 141° |
| 2026-05-06 19:57 | 32.18944 | 76.24752 | 11786 ft | 201 kts | 141° |
| 2026-05-06 19:57 | 32.17785 | 76.25678 | 11625 ft | 200 kts | 137° |
| 2026-05-06 19:57 | 32.16901 | 76.26903 | 11560 ft | 195 kts | 114° |
| 2026-05-06 19:58 | 32.16199 | 76.28260 | 11374 ft | 199 kts | 123° |
| 2026-05-06 19:58 | 32.15300 | 76.29512 | 11220 ft | 200 kts | 125° |
| 2026-05-06 19:58 | 32.14431 | 76.30790 | 11084 ft | 199 kts | 122° |
| 2026-05-06 19:58 | 32.13608 | 76.32108 | 10940 ft | 201 kts | 120° |
| 2026-05-06 19:59 | 32.12790 | 76.33442 | 10779 ft | 201 kts | 122° |
| 2026-05-06 19:59 | 32.11954 | 76.34767 | 10632 ft | 203 kts | 122° |
| 2026-05-06 19:59 | 32.11108 | 76.36100 | 10527 ft | 203 kts | 122° |
| 2026-05-06 19:59 | 32.10265 | 76.37436 | 10380 ft | 202 kts | 122° |
| 2026-05-06 20:00 | 32.09432 | 76.38768 | 10202 ft | 202 kts | 122° |
| 2026-05-06 20:00 | 32.08589 | 76.40099 | 10060 ft | 204 kts | 122° |
| 2026-05-06 20:00 | 32.07738 | 76.41449 | 9910 ft | 205 kts | 122° |
| 2026-05-06 20:00 | 32.06894 | 76.42790 | 9754 ft | 202 kts | 122° |
| 2026-05-06 20:01 | 32.06059 | 76.44117 | 9596 ft | 201 kts | 122° |
| 2026-05-06 20:01 | 32.05223 | 76.45450 | 9442 ft | 204 kts | 121° |
| 2026-05-06 20:01 | 32.04394 | 76.46809 | 9283 ft | 204 kts | 121° |
| 2026-05-06 20:01 | 32.03576 | 76.48161 | 9126 ft | 203 kts | 121° |
| 2026-05-06 20:02 | 32.02760 | 76.49514 | 9015 ft | 200 kts | 121° |
| 2026-05-06 20:02 | 32.01961 | 76.50831 | 9042 ft | 194 kts | 121° |
| 2026-05-06 20:02 | 32.01201 | 76.52102 | 9039 ft | 186 kts | 121° |
| 2026-05-06 20:02 | 32.00468 | 76.53330 | 9006 ft | 182 kts | 121° |
| 2026-05-06 20:03 | 31.99745 | 76.54539 | 9009 ft | 179 kts | 121° |
| 2026-05-06 20:03 | 31.99028 | 76.55736 | 9005 ft | 178 kts | 121° |
| 2026-05-06 20:03 | 31.98315 | 76.56925 | 9009 ft | 178 kts | 121° |
| 2026-05-06 20:03 | 31.97601 | 76.58119 | 9011 ft | 178 kts | 121° |
| 2026-05-06 20:04 | 31.96880 | 76.59326 | 8920 ft | 182 kts | 121° |
| 2026-05-06 20:04 | 31.96148 | 76.60553 | 8816 ft | 184 kts | 121° |
| 2026-05-06 20:04 | 31.95410 | 76.61790 | 8711 ft | 185 kts | 121° |
| 2026-05-06 20:04 | 31.94924 | 76.62617 | 8646 ft | 185 kts | 120° |
| 2026-05-06 20:05 | 31.94201 | 76.63872 | 8542 ft | 185 kts | 120° |
| 2026-05-06 20:05 | 31.93479 | 76.65126 | 8471 ft | 185 kts | 120° |
| 2026-05-06 20:05 | 31.92759 | 76.66380 | 8370 ft | 185 kts | 120° |
| 2026-05-06 20:05 | 31.92039 | 76.67632 | 8267 ft | 185 kts | 120° |
| 2026-05-06 20:06 | 31.91318 | 76.68883 | 8125 ft | 185 kts | 120° |
| 2026-05-06 20:06 | 31.90586 | 76.70144 | 8022 ft | 188 kts | 120° |
| 2026-05-06 20:06 | 31.89846 | 76.71403 | 8013 ft | 186 kts | 120° |
| 2026-05-06 20:06 | 31.89117 | 76.72657 | 8008 ft | 185 kts | 120° |
| 2026-05-06 20:07 | 31.88393 | 76.73895 | 8005 ft | 183 kts | 120° |
| 2026-05-06 20:07 | 31.87669 | 76.75128 | 8007 ft | 183 kts | 120° |
| 2026-05-06 20:07 | 31.86946 | 76.76357 | 8011 ft | 183 kts | 120° |
| 2026-05-06 20:07 | 31.86218 | 76.77594 | 8008 ft | 183 kts | 120° |
| 2026-05-06 20:08 | 31.85492 | 76.78825 | 8014 ft | 184 kts | 120° |
| 2026-05-06 20:08 | 31.84766 | 76.80068 | 8053 ft | 186 kts | 120° |
| 2026-05-06 20:08 | 31.84031 | 76.81325 | 8052 ft | 185 kts | 120° |
| 2026-05-06 20:08 | 31.83306 | 76.82565 | 8058 ft | 184 kts | 120° |
| 2026-05-06 20:09 | 31.82580 | 76.83816 | 8043 ft | 184 kts | 120° |
| 2026-05-06 20:09 | 31.81912 | 76.85083 | 8052 ft | 183 kts | 110° |
| 2026-05-06 20:09 | 31.81544 | 76.86498 | 8087 ft | 179 kts | 95° |
| 2026-05-06 20:09 | 31.81348 | 76.87909 | 8201 ft | 172 kts | 94° |
| 2026-05-06 20:10 | 31.81165 | 76.89276 | 8311 ft | 167 kts | 95° |
| 2026-05-06 20:10 | 31.80968 | 76.90619 | 8415 ft | 166 kts | 94° |
| 2026-05-06 20:10 | 31.80766 | 76.91951 | 8501 ft | 165 kts | 95° |
| 2026-05-06 20:10 | 31.80553 | 76.93266 | 8627 ft | 163 kts | 97° |
| 2026-05-06 20:11 | 31.80298 | 76.94559 | 8795 ft | 162 kts | 98° |
| 2026-05-06 20:11 | 31.80043 | 76.95838 | 8932 ft | 160 kts | 98° |
| 2026-05-06 20:11 | 31.79789 | 76.97113 | 9057 ft | 161 kts | 98° |
| 2026-05-06 20:11 | 31.79604 | 76.98433 | 9086 ft | 166 kts | 87° |
| 2026-05-06 20:12 | 31.79672 | 76.99775 | 9081 ft | 171 kts | 76° |
| 2026-05-06 20:12 | 31.79914 | 77.01182 | 9073 ft | 173 kts | 71° |
| 2026-05-06 20:12 | 31.80203 | 77.02564 | 9069 ft | 175 kts | 71° |
| 2026-05-06 20:12 | 31.80497 | 77.03951 | 9064 ft | 175 kts | 71° |
| 2026-05-06 20:13 | 31.80852 | 77.05320 | 9061 ft | 176 kts | 62° |
| 2026-05-06 20:13 | 31.81392 | 77.06612 | 9050 ft | 176 kts | 57° |
| 2026-05-06 20:13 | 31.81944 | 77.07901 | 9005 ft | 178 kts | 59° |
| 2026-05-06 20:13 | 31.82463 | 77.09237 | 8671 ft | 190 kts | 61° |
| 2026-05-06 20:14 | 31.82942 | 77.10787 | 7844 ft | 204 kts | 69° |
| 2026-05-06 20:14 | 31.83326 | 77.12362 | 6847 ft | 195 kts | 70° |
| 2026-05-06 20:14 | 31.83517 | 77.13215 | 6146 ft | 195 kts | 70° |
| 2026-05-06 20:14 | 31.83918 | 77.14677 | 5174 ft | 183 kts | 65° |
| 2026-05-06 20:15 | 31.83945 | 77.16072 | 4515 ft | 168 kts | 115° |
| 2026-05-06 20:15 | 31.83135 | 77.16880 | 4358 ft | 137 kts | 140° |
| 2026-05-06 20:15 | 31.82666 | 77.17551 | 4554 ft | 92 kts | 81° |
| 2026-05-06 20:15 | 31.83168 | 77.17871 | 4386 ft | 111 kts | 335° |
| 2026-05-06 20:16 | 31.83878 | 77.17461 | 4318 ft | 118 kts | 329° |
| 2026-05-06 20:16 | 31.84633 | 77.17026 | 4197 ft | 124 kts | 332° |
| 2026-05-06 20:16 | 31.85432 | 77.16566 | 4160 ft | 127 kts | 329° |
| 2026-05-06 20:16 | 31.86226 | 77.16104 | 4111 ft | 127 kts | 333° |
| 2026-05-06 20:17 | 31.87025 | 77.15714 | 3711 ft | 125 kts | 335° |
| 2026-05-06 20:17 | 31.87762 | 77.15414 | 3648 ft | 93 kts | 349° |
| 2026-05-06 20:17 | 31.88114 | 77.15260 | 3655 ft | 10 kts | 230° |
| 2026-05-06 20:17 | 31.88108 | 77.15255 | 3655 ft | 5 kts | 213° |
| 2026-05-06 20:18 | 31.88068 | 77.15255 | 3651 ft | 6 kts | 163° |
| 2026-05-06 20:18 | 31.87938 | 77.15311 | 3648 ft | 31 kts | 158° |
| 2026-05-06 20:18 | 31.87805 | 77.15296 | 3646 ft | 12 kts | 278° |
| 2026-05-06 20:18 | 31.87822 | 77.15240 | 3646 ft | 5 kts | 231° |
| 2026-05-06 20:19 | 31.87809 | 77.15235 | 3646 ft | 0 kts | 164° |